Home > Products > Valid Products > TAF

000
FTUS43 KDLH 230300 AAA
TAFHYR
TAF AMD
KHYR 230346Z 2304/2324 10006KT 5SM BR BKN014 OVC080
      TEMPO 2304/2306 2SM -SN BR BKN008 OVC014
     FM230600 08006KT 4SM -SN BR OVC009
      TEMPO 2306/2310 1 1/2SM -SN OVC006
     FM231200 05008KT 1SM -SN BR OVC005
      TEMPO 2314/2318 3/4SM -SN BR OVC003
     FM232300 03006KT 3SM -SN OVC010=



000
FTUS43 KDLH 230300 AAA
TAFINL
TAF AMD
KINL 230343Z 2304/2324 06006KT 6SM BR OVC008
      TEMPO 2304/2307 4SM -SNDZ BR OVC005
     FM230900 06005KT 4SM BR OVC005
     FM231600 02009G14KT 4SM -SN BR OVC011=



000
FTUS43 KDLH 230300 AAA
TAFBRD
TAF AMD
KBRD 230302Z 2303/2324 07006KT 3SM -SNDZ BR OVC006
      TEMPO 2304/2308 2SM -SN BR OVC005
     FM230800 03006KT 2SM BR OVC008
     FM231500 01009G15KT 2SM -DZSN BR OVC007
     FM232200 35007KT 5SM -SN BR OVC010=



000
FTUS43 KDLH 230200 AAA
TAFDLH
TAF AMD
KDLH 230234Z 2303/2324 09010KT 2SM BR SCT003 OVC007
      TEMPO 2303/2307 1SM -DZSN BR OVC003
     FM230800 07011G16KT 1SM -FZDZSN BR OVC002
     FM231300 07012G19KT 1SM -SN BR OVC005
      TEMPO 2315/2319 3/4SM -SN BR VV003
     FM231900 04011G17KT 1SM -SN BR OVC005=



000
FTUS43 KDLH 222300
TAFINL
TAF
KINL 222336Z 2300/2324 11007KT 6SM -DZSN BR OVC007
      TEMPO 2300/2304 3SM -SNDZ BR OVC004
     FM230400 08007KT 3SM -DZ BR OVC004
      TEMPO 2305/2309 1SM -DZ BR OVC003
     FM230900 06005KT 1SM BR OVC003
     FM231600 02009G14KT 4SM -SN BR OVC011=



000
FTUS43 KDLH 222300
TAFBRD
TAF
KBRD 222336Z 2300/2324 08006KT 2SM -SN BR OVC006
     FM230300 07006KT 1 1/2SM -SNDZ BR OVC004
      TEMPO 2305/2308 3/4SM -DZ BR OVC003
     FM230800 03006KT 2SM BR OVC008
     FM231500 01009G15KT 2SM -DZSN BR OVC007
     FM232200 35007KT 5SM -SN BR OVC010=



000
FTUS43 KDLH 222300
TAFHYR
TAF
KHYR 222336Z 2300/2324 10006KT 5SM BR BKN014 OVC080
      TEMPO 2303/2306 3SM BR BKN008 OVC014
     FM230600 08006KT 2SM -SNDZ BR OVC006
     FM231200 05008KT 1SM -SN BR OVC005
      TEMPO 2314/2318 3/4SM -SN BR OVC003
     FM232300 03006KT 3SM -SN OVC010=



000
FTUS43 KDLH 222300
TAFDLH
TAF
KDLH 222336Z 2300/2324 11011KT 1SM -DZSN BR OVC003
      TEMPO 2301/2305 1/2SM -DZSN FG VV002
     FM230800 07011G16KT 3/4SM -FZDZSN BR OVC002
     FM231300 07012G19KT 1SM -SN BR OVC005
      TEMPO 2315/2319 3/4SM -SN BR VV003
     FM231900 04011G17KT 1SM -SN BR OVC005=



000
FTUS43 KDLH 222200 AAA
TAFDLH
TAF AMD
KDLH 222202Z 2222/2318 11011KT 1/4SM -DZSN FG VV002
     FM230700 07011G16KT 3/4SM -DZSN BR OVC002
     FM231300 07012G19KT 1SM -SN BR OVC005
      TEMPO 2314/2318 3/4SM -SN BR VV003=



000
FTUS43 KDLH 221900 AAA
TAFINL
TAF AMD
KINL 221932Z 2220/2318 11007KT P6SM OVC006
      TEMPO 2220/2223 4SM -DZSN BR OVC004
     FM230100 08007KT 1SM -DZ BR OVC004
      TEMPO 2305/2309 1/2SM -DZ FG OVC003
     FM230900 10005KT 1/2SM FG OVC002
     FM231100 05007KT 3SM -SN BR BKN005 OVC012
     FM231600 01009G14KT 3SM -SN BR OVC014=



000
FTUS43 KDLH 221800 AAA
TAFDLH
TAF AMD
KDLH 221835Z 2219/2318 12010KT 1/4SM -DZ FG VV002
      TEMPO 2219/2222 3/4SM -DZSN BR OVC004
     FM222200 11010KT 1 1/2SM -DZ BR OVC005
     FM230200 09010KT 1SM -DZ BR OVC004
     FM230700 07011G16KT 3/4SM -DZSN BR OVC002
     FM231300 07012G19KT 1SM -SN BR OVC005
      TEMPO 2314/2318 3/4SM -SN BR VV003=



000
FTUS43 KDLH 221700 RRA
TAFHYR
TAF
KHYR 221740Z 2218/2318 15008KT 2SM BR OVC005
      TEMPO 2218/2220 1 1/2SM -DZ BR OVC004
     FM222000 15007KT 2SM -DZ BR OVC006
     FM222300 12006KT 4SM -DZ BR OVC012
     FM230700 09006KT 1SM -DZ BR OVC006
     FM231200 05008KT 1SM -SN BR OVC004
      TEMPO 2314/2318 3/4SM -SN BR OVC003=



000
FTUS43 KDLH 221700 RRA
TAFINL
TAF
KINL 221740Z 2218/2318 11006KT 4SM -DZ BR OVC006
      TEMPO 2218/2221 2SM -SNRA BR OVC004
     FM230100 08007KT 1SM -DZ BR OVC004
      TEMPO 2305/2309 1/2SM -DZ FG OVC003
     FM230900 10005KT 1/2SM FG OVC002
     FM231100 05007KT 3SM -SN BR BKN005 OVC012
     FM231600 01009G14KT 3SM -SN BR OVC014=



000
FTUS43 KDLH 221700 RRA
TAFBRD
TAF
KBRD 221740Z 2218/2318 13009KT 3SM BR OVC006
     FM222000 13008KT 3SM -RA BR SCT004 OVC007
     FM230000 11005KT 1SM -DZ BR OVC004
     FM230300 08007KT 1SM -DZ BR OVC004
      TEMPO 2305/2309 1/2SM -DZ FG OVC003
     FM230900 03007KT 2SM BR OVC008
     FM231500 01009G15KT 2SM -SN BR SCT005 OVC011=



000
FTUS43 KDLH 221700 RRA
TAFDLH
TAF
KDLH 221740Z 2218/2318 12010KT 1 1/2SM -DZSN BR OVC003
      TEMPO 2218/2220 3/4SM -SNDZ BR OVC004
     FM222000 11010KT 2SM -DZ BR OVC005
     FM230200 09010KT 1SM -DZ BR OVC004
     FM230700 07011G16KT 3/4SM -DZSN BR OVC002
     FM231300 07012G19KT 1SM -SN BR OVC005
      TEMPO 2314/2318 3/4SM -SN BR VV003=



000
FTUS43 KDLH 221600 AAB
TAFHYR
TAF AMD
KHYR 221606Z 2216/2312 15008KT 2SM BR OVC005
      TEMPO 2216/2220 1 1/2SM -DZ BR OVC004
     FM222000 15007KT 2SM -DZ BR OVC006
     FM222300 12006KT 4SM -RASN BR OVC012
     FM230600 09006KT 3SM -SN BR OVC009=



000
FTUS43 KDLH 221500 AAA
TAFINL
TAF AMD
KINL 221524Z 2215/2312 11006KT 3SM -SN BR OVC004
     FM221800 12004KT 2SM -SNRA BR OVC004
     FM230100 10005KT 1SM BR OVC003
     FM230500 10005KT 1/2SM FG OVC002=



000
FTUS43 KDLH 221500 AAA
TAFBRD
TAF AMD
KBRD 221515Z 2215/2312 14009KT 4SM BR OVC006
      TEMPO 2215/2218 2SM -DZ BR
     FM221800 13008KT 3SM -SNRA BR SCT004 OVC007
      TEMPO 2218/2222 1SM -SN VV004
     FM222200 11005KT 1SM -DZ BR OVC004
     FM230300 08007KT 1SM -SN BR OVC004
     FM230900 03007KT 2SM BR OVC008=



000
FTUS43 KDLH 221500 AAA
TAFHYR
TAF AMD
KHYR 221512Z 2215/2312 15006KT 2SM BR OVC005
      TEMPO 2215/2219 1SM -DZ BR VV002
     FM221900 15007KT 2SM -DZ BR OVC006
     FM222300 12006KT 4SM -RASN BR OVC012
     FM230600 09006KT 3SM -SN BR OVC009=



000
FTUS43 KDLH 221500 AAB
TAFDLH
TAF AMD
KDLH 221510Z 2215/2312 12010KT 1/4SM -SN FG VV002
      TEMPO 2215/2219 3/4SM -DZSN BR OVC004
     FM221900 12008KT 2SM -SN BR OVC002
     FM230100 10010KT 1SM BR OVC004
     FM230600 09011KT 2SM -SN BR OVC002
     FM231000 07012KT 5SM BR OVC006=



000
FTUS43 KDLH 221400 AAA
TAFDLH
TAF AMD
KDLH 221420Z 2214/2312 14008KT 3SM -SN BR OVC004
      TEMPO 2214/2218 1/4SM -DZSN FG OVC002
     FM222000 12008KT 2SM -SN BR OVC002
     FM230100 10010KT 1SM BR OVC004
     FM230600 09011KT 2SM -SN BR OVC002
     FM231000 07012KT 5SM BR OVC006=



000
FTUS43 KDLH 221100 RRA
TAFBRD
TAF
KBRD 221147Z 2212/2312 14009KT 4SM BR OVC006
      TEMPO 2212/2216 2SM -DZ BR
     FM222200 11005KT 1SM -DZ BR OVC004
     FM230300 08007KT 1SM -SN BR OVC004
     FM230900 03007KT 2SM BR OVC008=



000
FTUS43 KDLH 221100 RRA
TAFINL
TAF
KINL 221147Z 2212/2312 13006KT 1 1/2SM -SN BR OVC002
     FM221400 12004KT 3SM -DZSN BR OVC003
     FM221800 12004KT 2SM -RASN OVC004
     FM230100 10005KT 1SM BR OVC003
     FM230500 10005KT 1/2SM FG OVC002=



000
FTUS43 KDLH 221100 RRA
TAFDLH
TAF
KDLH 221147Z 2212/2312 14008KT 3SM -SN BR OVC004
     FM221500 14008KT 1SM -DZSN BR OVC003
     FM222000 12008KT 2SM -SN BR OVC002
     FM230100 10010KT 1SM BR OVC004
     FM230600 09011KT 2SM -SN BR OVC002
     FM231000 07012KT 5SM BR OVC006=



000
FTUS43 KDLH 221100 RRA
TAFHYR
TAF
KHYR 221147Z 2212/2312 16009KT P6SM OVC009
      TEMPO 2212/2216 3SM BR OVC004
     FM221600 13007KT 3SM -DZ BR OVC008
     FM222300 12006KT 4SM -RASN BR OVC012
     FM230600 09006KT 3SM -SN BR OVC009=



000
FTUS43 KDLH 221000 AAA
TAFBRD
TAF AMD
KBRD 221059Z 2211/2306 14005KT 2SM -DZ BR OVC006
     FM222300 10004KT 3/4SM -DZ BR OVC003=



000
FTUS43 KDLH 220900 AAB
TAFHYR
TAF AMD
KHYR 220905Z 2209/2306 14007KT 5SM -RASN BR BKN008 OVC012
      TEMPO 2209/2212 2SM -SN BR SCT005 OVC013
     FM221200 14006KT 3SM -DZSN BR OVC005
     FM221800 13007KT 3SM -DZ BR OVC008
     FM222300 10004KT 2SM BR OVC007=



000
FTUS43 KDLH 220800 AAA
TAFHYR
TAF AMD
KHYR 220800Z 2208/2306 14007KT 2SM -SNRA BR BKN008 OVC012
      TEMPO 2208/2210 3/4SM -SN BR SCT005 OVC013
     FM221200 14006KT 1 1/2SM -DZSN BR OVC005
     FM221800 13007KT 3SM -DZ BR OVC008
     FM222300 10004KT 2SM BR OVC007=



000
FTUS43 KDLH 220800 AAA
TAFHYR
TAF AMD
KHYR 220800Z 2208/2306 14007KT 2SM -SNRA BR BKN008 OVC012
      TEMPO 2208/2210 3/4SM -SN BR SCT005 OVC013
     FM221200 14006KT 1 1/2SM -DZSN BR OVC005
     FM221800 13007KT 3SM -DZ BR OVC008
     FM222300 10004KT 2SM BR OVC007=



000
FTUS43 KDLH 220600 AAB
TAFDLH
TAF AMD
KDLH 220642Z 2207/2306 14007KT 1/4SM -DZ FG OVC002
     FM220800 14008KT 3/4SM -SN BR OVC003
      TEMPO 2208/2211 1 1/2SM -RASN OVC005
     FM221500 13008KT 3/4SM -DZSN BR OVC003
     FM221800 10008KT 3/4SM -DZ BR OVC002=



000
FTUS43 KDLH 220600 AAA
TAFDLH
TAF AMD
KDLH 220640Z 2207/2306 14007KT 1/2SM -DZ FG OVC002
     FM220800 14008KT 3/4SM -SN BR OVC003
      TEMPO 2208/2211 1 1/2SM -RASN OVC005
     FM221500 13008KT 3/4SM -DZSN BR OVC003
     FM221800 10008KT 3/4SM -DZ BR OVC002=



000
FTUS43 KDLH 220500
TAFBRD
TAF
KBRD 220536Z 2206/2306 15007KT 3SM BR OVC005
      TEMPO 2206/2210 1SM -DZ BR OVC003
     FM221000 14005KT 1SM -DZ BR OVC003
     FM222300 10004KT 3/4SM -DZ BR OVC003=



000
FTUS43 KDLH 220500
TAFHYR
TAF
KHYR 220536Z 2206/2306 15007KT 5SM -DZ BR OVC005
     FM220700 14007KT 1 1/2SM -SNRA BR BKN005 OVC010
      TEMPO 2207/2210 3/4SM -SN BR SCT005 OVC013
     FM221200 14006KT 1 1/2SM -DZSN BR OVC005
     FM221800 13007KT 3SM -DZ BR OVC008
     FM222300 10004KT 2SM BR OVC007=



000
FTUS43 KDLH 220500
TAFINL
TAF
KINL 220536Z 2206/2306 13007KT 6SM BR OVC007
      TEMPO 2208/2211 2SM -DZ OVC005
     FM221100 11005KT 3SM -SNDZ OVC005
     FM221400 10004KT 1 1/2SM -SNRA BR OVC003
     FM222300 11004KT 2SM -DZSN OVC003=



000
FTUS43 KDLH 220500
TAFDLH
TAF
KDLH 220536Z 2206/2306 14007KT 1 1/2SM -DZ BR OVC002
     FM220800 14008KT 3/4SM -SN BR OVC003
      TEMPO 2208/2211 1 1/2SM -RASN OVC005
     FM221500 13008KT 3/4SM -DZSN BR OVC003
     FM221800 10008KT 3/4SM -DZ BR OVC002=



000
FTUS43 KDLH 220400 AAB
TAFHYR
TAF AMD
KHYR 220403Z 2204/2224 16006KT 6SM -DZSN BR SCT007 OVC012
      TEMPO 2205/2206 3SM -SN BKN007 OVC012
     FM220600 16008KT 1 1/2SM -SNDZ BR OVC006
     FM221800 13007KT 3SM -DZ BR OVC007=



000
FTUS43 KDLH 220300 AAB
TAFBRD
TAF AMD
KBRD 220335Z 2204/2224 16008KT 1 1/2SM BR OVC003
      TEMPO 2204/2206 3/4SM -FZDZSN BR OVC003
     FM220600 14006KT 3/4SM -DZ OVC003
     FM221000 12005KT 1SM -DZ BR OVC003=



000
FTUS43 KDLH 220300 AAA
TAFHYR
TAF AMD
KHYR 220309Z 2203/2224 16006KT 5SM -SN BR BKN007 OVC012
      TEMPO 2204/2206 2SM -SN SCT007 OVC012
     FM220600 16008KT 1 1/2SM -SNDZ BR OVC006
     FM221800 13007KT 3SM -DZ BR OVC007=



000
FTUS43 KDLH 220300 AAA
TAFDLH
TAF AMD
KDLH 220307Z 2203/2224 14009KT 2SM BR OVC003
      TEMPO 2203/2206 3/4SM -FZDZSN BR
     FM220600 12009KT 1/2SM -DZSN FG VV002
     FM221800 10010KT 3/4SM -DZ BR OVC002=



000
FTUS43 KDLH 220000 AAA
TAFBRD
TAF AMD
KBRD 220059Z 2201/2224 15008KT 1 1/2SM BR OVC003
      TEMPO 2201/2204 3/4SM -FZDZ BR OVC003
     FM220400 14006KT 3/4SM -DZ OVC003
     FM221000 12005KT 1SM -DZ BR OVC003=



000
FTUS43 KDLH 220000 AAA
TAFBRD
TAF AMD
KBRD 220059Z 2201/2224 15008KT 1 1/2SM BR OVC003
      TEMPO 2201/2204 3/4SM -FZDZ BR OVC003
     FM220400 14006KT 3/4SM -DZ OVC003
     FM221000 12005KT 1SM -DZ BR OVC003=



000
FTUS43 KDLH 220000 AAA
TAFDLH
TAF AMD
KDLH 220010Z 2200/2224 13009KT 1SM -FZDZ BR OVC004
      TEMPO 2201/2205 1/2SM -FZDZSN FG VV003
     FM220600 12009KT 1/2SM -DZSN FG VV002
     FM221800 10010KT 3/4SM -DZ BR OVC002=



000
FTUS43 KDLH 220000 AAA
TAFDLH
TAF AMD
KDLH 220010Z 2200/2224 13009KT 1SM -FZDZ BR OVC004
      TEMPO 2201/2205 1/2SM -FZDZSN FG VV003
     FM220600 12009KT 1/2SM -DZSN FG VV002
     FM221800 10010KT 3/4SM -DZ BR OVC002=



000
FTUS43 KDLH 212300
TAFHYR
TAF
KHYR 212340Z 2200/2224 16007KT 3SM -SN BR OVC015
      TEMPO 2200/2203 1 1/2SM -SN OVC008
     FM220400 16008KT 1 1/2SM -SNDZ BR OVC006
     FM221800 13007KT 3SM -DZ BR OVC007=



000
FTUS43 KDLH 212300
TAFBRD
TAF
KBRD 212340Z 2200/2224 15008KT 3SM -DZ BR OVC006
      TEMPO 2201/2204 2SM -DZ BR OVC003
     FM220400 14006KT 1 1/2SM -DZ OVC003
     FM221000 12005KT 1SM -DZ BR OVC003=



000
FTUS43 KDLH 212300
TAFINL
TAF
KINL 212340Z 2200/2224 14005KT 3SM BR OVC006
      TEMPO 2204/2208 2SM -DZ OVC003
     FM220800 11005KT 2SM -DZ OVC003
     FM221300 10004KT 1 1/2SM -DZSN BR OVC003=



000
FTUS43 KDLH 212300
TAFDLH
TAF
KDLH 212340Z 2200/2224 13009KT 1/2SM -DZ FG VV002
      TEMPO 2201/2205 1/4SM -FZDZSN FG VV003
     FM220600 12009KT 1/2SM -DZSN FG VV002
     FM221800 10010KT 3/4SM -DZ BR OVC002=



000
FTUS43 KDLH 212200 AAA
TAFDLH
TAF AMD
KDLH 212223Z 2122/2218 13010KT 1/2SM -DZ FG OVC003
      TEMPO 2122/2201 1/4SM -FZDZSN FG VV002
     FM220100 12009KT 1/2SM -DZSN FG VV002
     FM220800 10005KT 3/4SM -DZ BR OVC002=



000
FTUS43 KDLH 212200 AAA
TAFHYR
TAF AMD
KHYR 212202Z 2122/2218 16008KT 2SM -SN BR OVC010
      TEMPO 2122/2202 1/2SM SN OVC004
     FM220200 15009KT 1SM -DZSN BR OVC004
     FM220600 16008KT 3SM -DZSN BR OVC007=



000
FTUS43 KDLH 212000 AAA
TAFINL
TAF AMD
KINL 212011Z 2120/2218 16007KT 5SM BR OVC007
     FM212200 14005KT 2SM -DZ BR OVC004
     FM221000 10004KT 1SM -SNDZ BR OVC003=



000
FTUS43 KDLH 211900 AAB
TAFDLH
TAF AMD
KDLH 211908Z 2119/2218 13008KT 3SM -SNDZ BR OVC005
      TEMPO 2119/2122 3/4SM -SN BR OVC002
     FM212200 12007KT 2SM -DZSN BR OVC003
     FM220800 10005KT 3/4SM -DZ BR OVC002=



000
FTUS43 KDLH 211800 CCA
TAFDLH
TAF AMD
KDLH 211807Z 2118/2218 15012KT 1SM -DZSN BR OVC004
      TEMPO 2118/2120 1/4SM FZFG OVC002
     FM212000 12008KT 1SM -DZSN BR OVC003
     FM220800 10005KT 3/4SM -DZ BR OVC002=



000
FTUS43 KDLH 211800 AAA
TAFDLH
TAF AMD
KDLH 211804Z 2118/2218 15012KT 1SM -DZ BR OVC004
      TEMPO 2118/2120 1/4SM FZFG OVC002
     FM212000 12008KT 1SM -DZSN BR OVC003
     FM220800 10005KT 3/4SM -DZ BR OVC002=



000
FTUS43 KDLH 211700 RRA
TAFINL
TAF
KINL 211744Z 2118/2218 16008KT 4SM BR OVC006
      TEMPO 2118/2122 2SM -SN OVC004
     FM212200 14007KT 2SM -DZ BR OVC004
     FM221000 12005KT 1SM -DZ BR OVC003=



000
FTUS43 KDLH 211700 RRA
TAFDLH
TAF
KDLH 211744Z 2118/2218 15012KT 2SM -DZ BR OVC004
      TEMPO 2118/2120 3/4SM BR OVC003
     FM212000 12008KT 1SM -DZSN BR OVC003
     FM220800 10005KT 3/4SM -DZ BR OVC002=



000
FTUS43 KDLH 211700 RRA
TAFHYR
TAF
KHYR 211744Z 2118/2218 16008KT 2SM -SN BR OVC010
      TEMPO 2118/2122 1/2SM SN OVC004
     FM212200 15009KT 1SM -DZSN BR OVC004
     FM220600 16008KT 3SM -DZSN BR OVC007=



000
FTUS43 KDLH 211700 RRA
TAFBRD
TAF
KBRD 211744Z 2118/2218 15010KT 1 1/2SM BR OVC004
      TEMPO 2118/2122 1/2SM FG OVC002
     FM221000 12005KT 1SM -DZ BR OVC003=



000
FTUS43 KDLH 211700 AAB
TAFHYR
TAF AMD
KHYR 211716Z 2117/2212 16008KT 3SM -SN BR OVC008
      TEMPO 2117/2120 3/4SM -DZSN OVC003
     FM212000 15009KT 1SM -DZSN BR OVC004
     FM220600 16008KT 3SM -DZSN BR OVC007=



000
FTUS43 KDLH 211700 AAC
TAFDLH
TAF AMD
KDLH 211704Z 2117/2212 16012KT 3SM -DZ BR OVC006
      TEMPO 2117/2120 3/4SM BR OVC003
     FM212000 12007KT 1 1/2SM -DZSN BR OVC004
     FM220400 12006KT 3/4SM -DZSN BR OVC002=



000
FTUS43 KDLH 211600 AAB
TAFDLH
TAF AMD
KDLH 211613Z 2116/2212 16012KT 4SM BR OVC006
      TEMPO 2116/2120 2SM BR OVC004
     FM212000 12007KT 2SM -DZSN BR OVC004
     FM220400 12006KT 3/4SM -DZSN BR OVC002=



000
FTUS43 KDLH 211600 AAA
TAFINL
TAF AMD
KINL 211609Z 2116/2212 16008KT 5SM BR OVC008
      TEMPO 2116/2118 2SM -SN BR OVC004
     FM212000 15008KT 6SM BR OVC008
     FM220100 13006KT 4SM BR OVC005=



000
FTUS43 KDLH 211500 AAA
TAFHYR
TAF AMD
KHYR 211539Z 2116/2212 16008KT 3SM BR OVC008
      TEMPO 2116/2120 1SM -RASN OVC004
     FM212000 15009KT 1SM -RASN BR OVC004
     FM220600 16008KT 3SM -RASN BR OVC007=



000
FTUS43 KDLH 211500 AAA
TAFDLH
TAF AMD
KDLH 211535Z 2116/2212 16011KT 6SM BR OVC006
      TEMPO 2115/2118 3SM -RASN OVC004
     FM211800 13010KT 5SM BR OVC006
     FM220200 12009KT 3SM -SN BR OVC004
     FM220700 12005KT 1SM -SN BR OVC003=



000
FTUS43 KDLH 211100
TAFBRD
TAF
KBRD 211140Z 2112/2212 17012G18KT 4SM BR VCSH OVC005
     FM211700 17011KT 6SM BR OVC008
     FM220400 15007KT 5SM BR OVC006
     FM220700 14007KT 2SM -SN OVC004=



000
FTUS43 KDLH 211100
TAFINL
TAF
KINL 211140Z 2112/2212 15006KT P6SM OVC010
      TEMPO 2112/2114 3SM -SN BR OVC008
     FM211600 17009KT 6SM BR OVC008
     FM220100 13006KT 4SM BR OVC005=



000
FTUS43 KDLH 211100
TAFDLH
TAF
KDLH 211140Z 2112/2212 17010KT 6SM -FZDZSN BR OVC006
     FM211700 14011KT 6SM -SN OVC008
     FM212100 13012KT 6SM BR OVC008
     FM220200 12009KT 3SM -SN BR OVC004
     FM220700 12005KT 1SM -SN BR OVC003=



000
FTUS43 KDLH 211100
TAFHYR
TAF
KHYR 211140Z 2112/2212 16006KT 5SM BR OVC010
     FM211600 16008KT 3SM -DZSN BR OVC006
     FM211900 15009KT 2SM -SN BR OVC006
     FM220400 16008KT 4SM -DZSN BR OVC006=



000
FTUS43 KDLH 211000 AAB
TAFBRD
TAF AMD
KBRD 211023Z 2110/2206 17011G18KT 6SM BR OVC008
      TEMPO 2110/2112 4SM -FZDZ BR OVC005
     FM211900 16010KT 6SM BR OVC009=



000
FTUS43 KDLH 211000 AAA
TAFDLH
TAF AMD
KDLH 211022Z 2110/2206 17012G17KT 6SM BR OVC006
      TEMPO 2110/2114 2SM -FZDZSN BR OVC005
     FM212100 13012G19KT 6SM BR OVC010
     FM220400 12010KT 3SM BR OVC005=



000
FTUS43 KDLH 211000 AAA
TAFDLH
TAF AMD
KDLH 211022Z 2110/2206 17012G17KT 6SM BR OVC006
      TEMPO 2110/2114 2SM -FZDZSN BR OVC005
     FM212100 13012G19KT 6SM BR OVC010
     FM220400 12010KT 3SM BR OVC005=



000
FTUS43 KDLH 211000 AAB
TAFINL
TAF AMD
KINL 211021Z 2110/2206 15006KT 3SM -SN BR OVC012
      TEMPO 2110/2112 1SM -SN BR OVC006
     FM211200 15010KT 4SM -FZDZSN BR OVC005
     FM211700 16011G17KT 5SM BR OVC008
     FM220200 13007KT 4SM BR OVC007=



000
FTUS43 KDLH 211000 AAB
TAFINL
TAF AMD
KINL 211021Z 2110/2206 15006KT 3SM -SN BR OVC012
      TEMPO 2110/2112 1SM -SN BR OVC006
     FM211200 15010KT 4SM -FZDZSN BR OVC005
     FM211700 16011G17KT 5SM BR OVC008
     FM220200 13007KT 4SM BR OVC007=



000
FTUS43 KDLH 210900 AAA
TAFINL
TAF AMD
KINL 210925Z 2109/2206 15006KT 3SM -SN BR OVC006
      TEMPO 2109/2111 3/4SM -SN BR OVC004
     FM211100 15010KT 4SM -FZDZSN BR OVC005
     FM211700 16011G17KT 5SM BR OVC008
     FM220200 13007KT 4SM BR OVC007=



000
FTUS43 KDLH 210600 AAA
TAFBRD
TAF AMD
KBRD 210656Z 2107/2206 17013G18KT 6SM BR OVC008
      TEMPO 2107/2109 5SM -FZDZSN BR OVC005
     FM210900 17010G16KT 5SM BR OVC006
     FM211900 16010KT 6SM BR OVC009=



000
FTUS43 KDLH 210500
TAFINL
TAF
KINL 210535Z 2106/2206 17009KT 6SM BR OVC006
      TEMPO 2107/2108 2SM -SN OVC004
     FM210800 15006KT 3SM -SN BR OVC006
      TEMPO 2108/2111 1 1/2SM -SN BR OVC004
     FM211100 15010KT 4SM -FZDZSN BR OVC005
     FM211700 16011G17KT 5SM BR OVC008
     FM220200 13007KT 4SM BR OVC007=



000
FTUS43 KDLH 210500
TAFDLH
TAF
KDLH 210535Z 2106/2206 18011G17KT 6SM BR OVC008
     FM210800 17011G17KT 5SM BR OVC006
      TEMPO 2110/2114 2SM -FZDZSN BR OVC005
     FM212100 13012G19KT 6SM BR OVC010
     FM220400 12010KT 3SM BR OVC005=



000
FTUS43 KDLH 210500
TAFBRD
TAF
KBRD 210535Z 2106/2206 17013G18KT 6SM BR OVC007
      TEMPO 2106/2108 5SM -FZDZSN BR OVC005
     FM210900 17010G16KT 5SM BR OVC006
     FM211900 16010KT 6SM BR OVC009=



000
FTUS43 KDLH 210500
TAFHYR
TAF
KHYR 210535Z 2106/2206 18010G16KT 5SM BR OVC010
     FM211100 17010KT 4SM BR OVC007
     FM211900 15010G16KT 3SM -DZSN BR OVC006
     FM220000 15009KT 2SM -DZ BR OVC006=



000
FTUS43 KDLH 210400 AAB
TAFINL
TAF AMD
KINL 210403Z 2104/2124 17005KT 6SM BR OVC005
      TEMPO 2107/2109 2SM -SN OVC004
     FM210900 15006KT 2SM -SN OVC006
      TEMPO 2109/2112 1SM -SN BR OVC004
     FM211200 15007KT 4SM -FZDZSN OVC005
     FM211700 16008KT 5SM BR OVC007=



000
FTUS43 KDLH 210400 AAB
TAFINL
TAF AMD
KINL 210403Z 2104/2124 17005KT 6SM BR OVC005
      TEMPO 2107/2109 2SM -SN OVC004
     FM210900 15006KT 2SM -SN OVC006
      TEMPO 2109/2112 1SM -SN BR OVC004
     FM211200 15007KT 4SM -FZDZSN OVC005
     FM211700 16008KT 5SM BR OVC007=



000
FTUS43 KDLH 210300 AAA
TAFHYR
TAF AMD
KHYR 210303Z 2103/2124 17008KT 5SM BR OVC011
     FM210500 18005KT 3SM BR OVC009=



000
FTUS43 KDLH 210300 AAA
TAFBRD
TAF AMD
KBRD 210302Z 2103/2124 18012G16KT 6SM BR OVC006
     FM210500 17010KT 3SM -FZDZSN OVC005
     FM210900 17007KT 3SM BR OVC004
     FM211900 16006KT 6SM BR OVC009=



000
FTUS43 KDLH 210300 AAA
TAFDLH
TAF AMD
KDLH 210301Z 2103/2124 19011KT 6SM BR OVC008
     FM210600 18009KT 4SM BR OVC007
     FM211000 16008KT 3SM BR OVC006
      TEMPO 2110/2114 1 1/2SM -FZDZSN BR OVC004
     FM212100 13009KT 5SM BR OVC010=



000
FTUS43 KDLH 210000 AAA
TAFINL
TAF AMD
KINL 210053Z 2101/2124 17005KT 5SM BR OVC009
      TEMPO 2101/2103 3SM BR BKN005 OVC010
     FM210900 15006KT 2SM -SN OVC006
      TEMPO 2109/2112 1SM -SN BR OVC004
     FM211200 15007KT 4SM -FZDZSN OVC005
     FM211700 16008KT 5SM BR OVC007=



000
FTUS43 KDLH 202300
TAFBRD
TAF
KBRD 202335Z 2100/2124 18008KT 6SM BR OVC009
     FM210300 18008KT 4SM BR OVC006
     FM210500 17007KT 2SM -FZDZSN OVC005
     FM210900 17007KT 3SM BR OVC004
     FM211900 16006KT 6SM BR OVC009=



000
FTUS43 KDLH 202300
TAFHYR
TAF
KHYR 202335Z 2100/2124 17007KT 6SM BR OVC015
     FM210500 18005KT 5SM BR OVC009=



000
FTUS43 KDLH 202300
TAFINL
TAF
KINL 202335Z 2100/2124 16005KT 4SM BR OVC009
     FM210900 15006KT 2SM -SN OVC006
      TEMPO 2109/2112 1SM -SN BR OVC004
     FM211200 15007KT 4SM -FZDZSN OVC005
     FM211700 16008KT 5SM BR OVC007=



000
FTUS43 KDLH 202300
TAFDLH
TAF
KDLH 202335Z 2100/2124 17008KT 6SM BR OVC010
     FM210200 17006KT 4SM BR OVC007
     FM211000 16008KT 3SM BR OVC006
      TEMPO 2110/2114 1 1/2SM -FZDZSN BR OVC004
     FM212100 13009KT 5SM BR OVC010=



000
FTUS43 KDLH 202100 AAA
TAFBRD
TAF AMD
KBRD 202148Z 2022/2118 19010KT 5SM BR OVC007
     FM210300 18008KT 4SM -SN BR OVC004=



000
FTUS43 KDLH 202100 AAA
TAFHYR
TAF AMD
KHYR 202148Z 2022/2118 17007KT 5SM BR OVC012
     FM210300 18005KT 4SM -SN BR OVC007=



000
FTUS43 KDLH 202100 AAA
TAFINL
TAF AMD
KINL 202147Z 2022/2118 17005KT 3SM BR OVC006=



000
FTUS43 KDLH 202100 AAA
TAFDLH
TAF AMD
KDLH 202146Z 2022/2118 17007KT 5SM BR OVC010
     FM210200 17006KT 4SM -SN BR OVC007=



000
FTUS43 KDLH 201700
TAFHYR
TAF
KHYR 201720Z 2018/2118 17007KT 4SM -SN BR OVC012
     FM210300 18005KT 4SM -SN BR OVC007=



000
FTUS43 KDLH 201700
TAFDLH
TAF
KDLH 201720Z 2018/2118 17008KT 4SM -SN BR OVC007=



000
FTUS43 KDLH 201700
TAFBRD
TAF
KBRD 201720Z 2018/2118 19010KT 4SM -SN BR OVC006
     FM210300 18008KT 4SM -SN BR OVC004=



000
FTUS43 KDLH 201700
TAFINL
TAF
KINL 201720Z 2018/2118 17005KT 3SM -SN BR OVC005
     FM202000 17006KT 4SM -SN BR OVC007=



000
FTUS43 KDLH 201600 AAA
TAFHYR
TAF AMD
KHYR 201617Z 2016/2112 17007KT 3SM -SN BR OVC012
     FM210300 18005KT 4SM -SN BR OVC007=



000
FTUS43 KDLH 201600 AAA
TAFINL
TAF AMD
KINL 201615Z 2016/2112 16005KT 3SM -SN BR OVC005
     FM201800 17006KT 4SM -SN BR OVC007=



000
FTUS43 KDLH 201600 AAA
TAFDLH
TAF AMD
KDLH 201610Z 2016/2112 17006KT 3SM -SN BR OVC006=



000
FTUS43 KDLH 201500 AAA
TAFBRD
TAF AMD
KBRD 201536Z 2016/2112 18010KT 3SM BR OVC006
     FM210300 18008KT 4SM -SN BR OVC004=



000
FTUS43 KDLH 201100 RRA
TAFHYR
TAF
KHYR 201143Z 2012/2112 18007KT P6SM VCSH OVC013
     FM201500 17006KT 5SM -FZDZ BR OVC009
     FM202200 19005KT P6SM VCSH OVC013
     FM210300 VRB03KT 4SM BR VCSH OVC008=



000
FTUS43 KDLH 201100 RRA
TAFDLH
TAF
KDLH 201143Z 2012/2112 15006KT 4SM -SN BR OVC006
      TEMPO 2012/2014 2SM -SN BR OVC004
     FM201600 16008KT 2SM -SN BR OVC007
     FM210000 17007KT P6SM VCSH OVC009=



000
FTUS43 KDLH 201100 RRA
TAFBRD
TAF
KBRD 201143Z 2012/2112 18008KT 2SM BR OVC004
     FM201900 17006KT 4SM -FZDZSN BR OVC008
     FM210000 19005KT 5SM BR VCSH OVC004=



000
FTUS43 KDLH 201100 RRA
TAFINL
TAF
KINL 201143Z 2012/2112 15005KT 2SM -SN BR SCT020 OVC026
     FM201900 17006KT 5SM -FZDZSN BR OVC014
     FM210000 18006KT 5SM BR VCSH OVC018=



000
FTUS43 KDLH 201000 AAA
TAFDLH
TAF AMD
KDLH 201048Z 2011/2106 17006KT 4SM -FZDZSN BR OVC006
      TEMPO 2011/2014 2SM -FZDZSN BR OVC004
     FM201600 16008KT 2SM -FZDZSN BR OVC007
     FM202000 17007KT 6SM -FZDZSN BR SCT009 OVC012
     FM210000 19007KT P6SM OVC017=



000
FTUS43 KDLH 200500
TAFBRD
TAF
KBRD 200534Z 2006/2106 16006KT 2SM BR OVC004
      TEMPO 2006/2010 1 1/2SM -FZDZSN BR OVC003
     FM201100 16005KT 2SM -FZDZSN BR OVC003
     FM201900 17006KT 4SM -FZDZSN BR OVC008
     FM210000 19005KT 6SM BR OVC014=



000
FTUS43 KDLH 200500
TAFDLH
TAF
KDLH 200534Z 2006/2106 15006KT 4SM -FZDZSN BR OVC006
      TEMPO 2006/2009 2SM -SN BR OVC004
     FM200900 14007KT 2SM -FZDZSN BR SCT004 BKN009
      TEMPO 2010/2014 3/4SM -FZDZSN BR OVC004
     FM201600 16008KT 2SM -FZDZSN BR OVC007
     FM202000 17007KT 6SM -FZDZSN BR SCT009 OVC012
     FM210000 19007KT P6SM OVC017=



000
FTUS43 KDLH 200500
TAFHYR
TAF
KHYR 200534Z 2006/2106 16005KT P6SM OVC018
     FM200800 15005KT 4SM BR SCT008 OVC013
     FM201100 15006KT 2SM -FZDZ BR OVC007
     FM201800 17006KT 5SM -FZDZ BR BKN009 OVC014
     FM202200 19005KT 6SM BR OVC018=



000
FTUS43 KDLH 200500
TAFINL
TAF
KINL 200534Z 2006/2106 15005KT 3SM -SN BR SCT025 OVC040
     FM201100 16006KT 2SM -FZDZSN BR BKN011 OVC022
     FM201900 17006KT 5SM -FZDZSN BR OVC014
     FM210000 18006KT 6SM BR OVC018=



    US Dept of Commerce
    National Oceanic and Atmospheric Administration
    National Weather Service
    1325 East West Highway
    Silver Spring, MD 20910
    Page Author: NWS Internet Services Team
Disclaimer
Information Quality
Credits
Glossary
Privacy Policy
Freedom of Information Act (FOIA)
About Us
Career Opportunities